Main page
METAR-TAF:

METAR-TAF

Airports :

St Mary's Airport

Isles of Scilly, England

latitude: 49-55N, longitude: 006-18W, elevation: 31 m

Current weather observation

The report was made 2 hours and 29 minutes ago, at 16:50 UTC
Wind 18 kt from the West
Temperature 18°C
Humidity 68%
Pressure 1012 hPa
Visibility 10 km or more
Few clouds at a height of 3300 ft

METAR: EGHE 281650Z 27018KT 9999 FEW033 18/12 Q1012

Time: 20:19 (19:19 UTC)

Forecast

The report was made 5 hours and 22 minutes ago, at 13:57 UTC
Forecast valid from 28 at 15 UTC to 28 at 18 UTC
Wind 16 kt from the West
Visibility 10 km or more
Few clouds at a height of 2500 ft
Temporary
from 28 at 15 UTC to 28 at 18 UTC
Wind 20 kt from the West with gusts up to 30 kt
Probability 30% :
Temporary
from 28 at 15 UTC to 28 at 18 UTC
Visibility: 7000 m
rain showers

TAF: EGHE 281357Z 2815/2818 26016KT 9999 FEW025 TEMPO 2815/2818 27020G30KT PROB30 TEMPO 2815/2818 7000 SHRA

Weather observations and forecasts of more than 4000 airports (METAR and TAF reports).

The available stations are represented by yellow and red dots on the map.

Hover mouse over dot to see the name of the station.

Then click to see weather observations and forecasts.

To change the map : click on the green buttons with a black cross to zoom in, on the green button with a dash to zoom out, or on the green arrows for adjacent maps.


METAR-TAF: